Time;durP1;ratioP1;P1;durP2;ratioP2;P2;SDS_P1;SDS_P2;PMS_P1;PMS_P2;Temp;Humidity;BMP_temperature;BMP_pressure;BME280_temperature;BME280_humidity;BME280_pressure;Samples;Min_cycle;Max_cycle;Signal;HPM_P1;HPM_P2
2022/01/30 00:00:42;;;;;;;1723.70;686.77;;;7.40;99.90;;;;;;5042137;28;20973;-78
2022/01/30 00:03:10;;;;;;;1999.90;717.17;;;7.40;99.90;;;;;;5038282;28;20545;-78
2022/01/30 00:05:38;;;;;;;1885.77;702.97;;;7.40;99.90;;;;;;5056029;28;20453;-77
2022/01/30 00:08:07;;;;;;;1789.30;697.47;;;7.40;99.90;;;;;;5053978;28;20472;-78
2022/01/30 00:10:39;;;;;;;1999.90;728.57;;;7.40;99.90;;;;;;5053971;28;20534;-77
2022/01/30 00:13:10;;;;;;;1999.90;469.37;;;7.40;99.90;;;;;;5054194;28;20553;-78
2022/01/30 00:15:42;;;;;;;1597.83;680.10;;;7.40;99.90;;;;;;5055527;28;20468;-78
2022/01/30 00:21:05;;;;;;;1999.90;999.90;;;7.40;99.90;;;;;;5046304;28;20959;-78
2022/01/30 00:23:37;;;;;;;1999.90;999.90;;;7.30;99.90;;;;;;5049471;28;20480;-78
2022/01/30 00:26:08;;;;;;;1978.97;278.47;;;7.30;99.90;;;;;;5053382;28;20459;-77
2022/01/30 00:28:37;;;;;;;1999.90;999.90;;;7.30;99.90;;;;;;5053784;28;21054;-77
2022/01/30 00:31:05;;;;;;;1919.23;151.23;;;7.30;99.90;;;;;;5053890;28;20449;-78
2022/01/30 00:33:34;;;;;;;1714.47;128.70;;;7.20;99.90;;;;;;5041389;28;20530;-78
2022/01/30 00:36:02;;;;;;;1999.90;733.90;;;7.20;99.90;;;;;;5041758;28;20454;-78
2022/01/30 00:38:33;;;;;;;1738.40;89.60;;;7.20;99.90;;;;;;5053489;28;20809;-77
2022/01/30 00:41:01;;;;;;;1959.33;205.33;;;7.20;99.90;;;;;;5057540;28;20446;-77
2022/01/30 00:43:31;;;;;;;1284.57;117.83;;;7.20;99.90;;;;;;5057557;28;20815;-77
2022/01/30 00:45:59;;;;;;;1999.90;749.47;;;7.20;99.90;;;;;;5057674;28;20553;-78
2022/01/30 00:48:27;;;;;;;1999.90;790.93;;;7.20;99.90;;;;;;5043160;28;20469;-78
2022/01/30 00:50:56;;;;;;;1999.90;409.13;;;7.10;99.90;;;;;;5042230;28;20549;-78
2022/01/30 00:53:26;;;;;;;1999.90;516.53;;;7.10;99.90;;;;;;5040448;28;20463;-77
2022/01/30 00:55:56;;;;;;;1999.90;731.70;;;7.10;99.90;;;;;;5058565;28;20423;-77
2022/01/30 00:58:25;;;;;;;1999.90;591.50;;;7.10;99.90;;;;;;5040716;28;21020;-78
2022/01/30 01:00:55;;;;;;;1999.90;612.23;;;7.10;99.90;;;;;;5053768;28;20546;-78
2022/01/30 01:03:24;;;;;;;1999.90;724.80;;;7.10;99.90;;;;;;5056937;28;20521;-78
2022/01/30 01:05:53;;;;;;;1999.90;642.30;;;7.10;99.90;;;;;;5056716;28;20454;-77
2022/01/30 01:08:30;;;;;;;1999.90;825.83;;;7.10;99.90;;;;;;5049317;28;20478;-78
2022/01/30 01:11:11;;;;;;;1999.90;893.90;;;7.10;99.90;;;;;;5057158;28;20463;-77
2022/01/30 01:14:09;;;;;;;1999.90;848.90;;;7.10;99.90;;;;;;5046891;28;20481;-78
2022/01/30 01:25:08;;;;;;;1999.90;531.60;;;7.00;99.90;;;;;;5056696;28;20464;-78
2022/01/30 01:27:36;;;;;;;1999.90;496.73;;;7.00;99.90;;;;;;5056617;28;20464;-78
2022/01/30 01:30:05;;;;;;;1999.90;672.23;;;7.00;99.90;;;;;;5058038;28;20807;-78
2022/01/30 01:32:35;;;;;;;1999.90;637.93;;;7.00;99.90;;;;;;5054897;28;20504;-77
2022/01/30 01:35:03;;;;;;;1999.90;749.27;;;7.00;99.90;;;;;;5056795;28;20541;-77
2022/01/30 01:37:31;;;;;;;1999.90;650.83;;;7.00;99.90;;;;;;5056982;28;20837;-78
2022/01/30 01:40:02;;;;;;;1999.90;903.20;;;6.90;99.90;;;;;;5056130;28;20955;-77
2022/01/30 01:42:33;;;;;;;1999.90;892.80;;;7.00;99.90;;;;;;5055942;28;20450;-78
2022/01/30 01:45:02;;;;;;;1999.90;862.40;;;7.00;99.90;;;;;;5056717;28;20439;-78
2022/01/30 01:47:33;;;;;;;1999.90;641.40;;;7.00;99.90;;;;;;5057179;28;20470;-78
2022/01/30 01:50:03;;;;;;;1999.90;775.43;;;7.00;99.90;;;;;;5056110;28;21033;-78
2022/01/30 01:52:34;;;;;;;1999.90;501.57;;;7.00;99.90;;;;;;5054562;28;20473;-77
2022/01/30 01:55:06;;;;;;;1999.90;495.90;;;7.00;99.90;;;;;;5039833;28;20495;-77
2022/01/30 01:57:36;;;;;;;1999.90;745.13;;;7.00;99.90;;;;;;5056504;28;20480;-77
2022/01/30 02:00:10;;;;;;;1999.90;347.83;;;7.00;99.90;;;;;;5056633;28;20438;-78
2022/01/30 02:02:41;;;;;;;1999.90;739.73;;;7.10;99.90;;;;;;5057891;28;20467;-77
2022/01/30 02:05:11;;;;;;;1999.90;723.53;;;7.00;99.90;;;;;;5056393;28;20477;-77
2022/01/30 02:08:24;;;;;;;1782.43;466.20;;;7.10;99.90;;;;;;5048490;28;20485;-78
2022/01/30 02:10:57;;;;;;;1082.53;67.63;;;7.00;99.90;;;;;;5039227;28;20451;-78
2022/01/30 02:13:44;;;;;;;1999.90;786.33;;;7.10;99.90;;;;;;5039474;28;20504;-78
2022/01/30 02:25:10;;;;;;;1950.37;246.73;;;7.00;99.90;;;;;;5038972;28;20450;-78
2022/01/30 02:27:39;;;;;;;1999.90;773.53;;;7.00;99.90;;;;;;5038975;28;20505;-78
2022/01/30 02:30:08;;;;;;;1999.90;999.90;;;7.00;99.90;;;;;;5039082;28;20538;-78
2022/01/30 02:32:36;;;;;;;1999.90;999.90;;;7.00;99.90;;;;;;5038069;28;20466;-78
2022/01/30 02:35:05;;;;;;;1999.90;999.90;;;7.00;99.90;;;;;;5038169;28;20445;-78
2022/01/30 02:37:34;;;;;;;1999.90;999.90;;;7.10;99.90;;;;;;5055230;28;20479;-78
2022/01/30 02:40:07;;;;;;;1999.90;999.90;;;7.10;99.90;;;;;;5054662;28;20446;-77
2022/01/30 02:42:39;;;;;;;1999.90;999.90;;;7.10;99.90;;;;;;5053286;28;20455;-77
2022/01/30 02:45:10;;;;;;;1999.90;999.90;;;7.10;99.90;;;;;;5037909;28;20889;-77
2022/01/30 02:47:54;;;;;;;1999.90;999.90;;;7.10;99.90;;;;;;5038524;28;20472;-78
2022/01/30 02:50:34;;;;;;;1999.90;999.90;;;7.00;99.90;;;;;;5038215;28;20507;-78
2022/01/30 02:53:05;;;;;;;1999.90;999.90;;;7.10;99.90;;;;;;5037973;28;20493;-78
2022/01/30 02:55:34;;;;;;;1999.90;999.90;;;7.00;99.90;;;;;;5037842;28;20935;-77
2022/01/30 02:58:03;;;;;;;1999.90;999.90;;;7.10;99.90;;;;;;5037903;28;20516;-78
2022/01/30 03:00:33;;;;;;;1999.90;521.30;;;7.00;99.90;;;;;;5055821;28;20462;-77
2022/01/30 03:03:03;;;;;;;1999.90;999.90;;;7.00;99.90;;;;;;5037157;28;20499;-78
2022/01/30 03:05:31;;;;;;;1999.90;999.90;;;7.00;99.90;;;;;;5055688;28;20476;-78
2022/01/30 03:08:00;;;;;;;1999.90;999.90;;;7.00;99.90;;;;;;5037840;28;20470;-77
2022/01/30 03:10:28;;;;;;;1999.90;999.90;;;7.00;99.90;;;;;;5051456;28;20533;-77
2022/01/30 03:12:58;;;;;;;1999.90;999.90;;;6.90;99.90;;;;;;5054085;28;20474;-77
2022/01/30 03:15:26;;;;;;;1999.90;999.90;;;6.90;99.90;;;;;;5054820;28;20437;-78
2022/01/30 03:17:55;;;;;;;1999.90;999.90;;;6.90;99.90;;;;;;5053497;28;20478;-77
2022/01/30 03:20:24;;;;;;;1999.90;999.90;;;6.90;99.90;;;;;;5054103;28;20450;-78
2022/01/30 03:22:53;;;;;;;1999.90;999.90;;;6.90;99.90;;;;;;5055264;28;20529;-78
2022/01/30 03:25:21;;;;;;;1999.90;999.90;;;6.90;99.90;;;;;;5049801;28;20568;-78
2022/01/30 03:28:27;;;;;;;488.97;48.77;;;6.90;99.90;;;;;;4985467;28;20477;-78
2022/01/30 03:31:07;;;;;;;1494.40;105.73;;;6.90;99.90;;;;;;5032415;28;20452;-78
2022/01/30 03:33:46;;;;;;;894.20;85.27;;;6.80;99.90;;;;;;5037299;28;20463;-77
2022/01/30 03:36:15;;;;;;;1999.90;999.90;;;6.80;99.90;;;;;;5037632;28;20461;-78
2022/01/30 03:38:44;;;;;;;1999.90;999.90;;;6.80;99.90;;;;;;5043197;28;20848;-78
2022/01/30 03:41:15;;;;;;;406.90;28.27;;;6.80;99.90;;;;;;5053408;28;20450;-77
2022/01/30 03:43:45;;;;;;;1999.90;999.90;;;6.80;99.90;;;;;;5053598;28;20449;-77
2022/01/30 03:46:15;;;;;;;1999.90;999.90;;;6.80;99.90;;;;;;5053621;28;21014;-77
2022/01/30 03:48:54;;;;;;;1999.90;999.90;;;6.80;99.90;;;;;;5053039;28;20478;-78
2022/01/30 03:51:28;;;;;;;1999.90;250.00;;;6.80;99.90;;;;;;5046986;28;20889;-77
2022/01/30 03:54:02;;;;;;;1772.97;703.97;;;6.80;99.90;;;;;;5036901;28;20466;-77
2022/01/30 03:56:30;;;;;;;1999.90;999.90;;;6.80;99.90;;;;;;5046365;28;20829;-78
2022/01/30 03:59:00;;;;;;;1999.90;829.67;;;6.80;99.90;;;;;;5040415;28;20987;-78
2022/01/30 04:01:29;;;;;;;1999.90;799.47;;;6.80;99.90;;;;;;5036501;28;20434;-78
2022/01/30 04:03:58;;;;;;;1999.90;382.03;;;6.80;99.90;;;;;;5036223;28;20537;-77
2022/01/30 04:06:27;;;;;;;1999.90;383.17;;;6.80;99.90;;;;;;5036249;28;20822;-77
2022/01/30 04:08:57;;;;;;;117.20;43.67;;;6.90;99.90;;;;;;5036341;28;20484;-77
2022/01/30 04:11:57;;;;;;;109.53;37.63;;;6.80;99.90;;;;;;5037082;28;20452;-77
2022/01/30 04:14:46;;;;;;;1197.00;195.37;;;6.90;99.90;;;;;;5038260;28;20497;-78
2022/01/30 04:17:41;;;;;;;249.10;33.67;;;6.90;99.90;;;;;;5053750;28;20883;-77
2022/01/30 04:20:23;;;;;;;29.47;9.87;;;6.90;99.90;;;;;;5040138;28;20492;-77
2022/01/30 04:23:11;;;;;;;150.97;32.10;;;6.90;99.90;;;;;;5046975;28;20468;-78
2022/01/30 04:26:06;;;;;;;127.90;41.13;;;6.90;99.90;;;;;;5026144;28;20434;-78
2022/01/30 04:28:53;;;;;;;86.90;12.00;;;6.90;99.90;;;;;;5057266;28;20469;-78
2022/01/30 04:31:55;;;;;;;50.20;12.83;;;6.80;99.90;;;;;;5004540;28;20434;-78
2022/01/30 04:34:34;;;;;;;99.13;26.03;;;6.80;99.90;;;;;;5019630;28;20462;-77
2022/01/30 04:37:21;;;;;;;209.90;36.47;;;6.80;99.90;;;;;;5055247;28;20473;-77
2022/01/30 04:58:54;;;;;;;20.43;6.93;;;6.60;99.90;;;;;;4991651;28;20900;-78
2022/01/30 05:02:04;;;;;;;22.43;7.30;;;6.60;99.90;;;;;;4969749;28;20982;-78
2022/01/30 05:04:51;;;;;;;21.37;7.77;;;6.60;99.90;;;;;;4968943;28;20454;-78
2022/01/30 05:07:29;;;;;;;19.17;7.03;;;6.60;99.90;;;;;;4989468;28;20572;-79
2022/01/30 05:10:01;;;;;;;25.43;9.00;;;6.60;99.90;;;;;;4991676;28;20780;-78
2022/01/30 05:12:41;;;;;;;21.80;8.07;;;6.60;99.90;;;;;;4990188;28;20477;-78
2022/01/30 05:15:31;;;;;;;26.77;8.90;;;6.60;99.90;;;;;;4991920;28;20570;-78
2022/01/30 05:18:18;;;;;;;23.43;8.33;;;6.60;99.90;;;;;;4974593;28;20498;-79
2022/01/30 05:21:02;;;;;;;206.97;31.40;;;6.60;99.90;;;;;;4972042;28;20419;-79
2022/01/30 05:23:42;;;;;;;197.60;80.30;;;6.60;99.90;;;;;;4972759;28;20460;-78
2022/01/30 05:26:22;;;;;;;159.43;43.53;;;6.60;99.90;;;;;;4978090;28;20453;-78
2022/01/30 05:29:17;;;;;;;99.57;22.07;;;6.60;99.90;;;;;;5004554;28;20490;-78
2022/01/30 05:31:54;;;;;;;171.27;18.10;;;6.60;99.90;;;;;;4970861;28;20437;-78
2022/01/30 05:34:46;;;;;;;38.97;10.73;;;6.60;99.90;;;;;;4975162;28;20458;-78
2022/01/30 05:37:37;;;;;;;119.23;18.53;;;6.60;99.90;;;;;;4970005;28;20485;-78
2022/01/30 05:40:24;;;;;;;32.97;11.97;;;6.70;99.90;;;;;;4971555;28;20481;-78
2022/01/30 05:43:28;;;;;;;127.13;17.60;;;6.60;99.90;;;;;;4971488;28;20463;-78
2022/01/30 05:46:31;;;;;;;364.93;18.77;;;6.70;99.90;;;;;;4969890;28;20899;-79
2022/01/30 05:49:20;;;;;;;24.30;8.33;;;6.60;99.90;;;;;;4971233;28;20817;-78
2022/01/30 05:52:11;;;;;;;98.03;11.40;;;6.60;99.90;;;;;;4970221;28;20446;-78
2022/01/30 05:54:52;;;;;;;451.87;27.20;;;6.60;99.90;;;;;;4970508;28;20462;-78
2022/01/30 05:57:21;;;;;;;25.13;8.73;;;6.60;99.90;;;;;;4969670;28;20477;-78
2022/01/30 05:59:52;;;;;;;23.63;8.37;;;6.60;99.90;;;;;;4969726;28;21036;-78
2022/01/30 06:02:42;;;;;;;31.10;12.00;;;6.60;99.90;;;;;;4991859;28;20820;-78
2022/01/30 06:05:14;;;;;;;24.20;9.10;;;6.60;99.90;;;;;;4974328;28;20488;-79
2022/01/30 06:07:49;;;;;;;26.50;9.10;;;6.60;99.90;;;;;;4987532;28;20492;-78
2022/01/30 06:10:18;;;;;;;43.73;13.10;;;6.60;99.90;;;;;;4972768;28;20435;-78
2022/01/30 06:12:47;;;;;;;124.03;14.63;;;6.60;99.90;;;;;;4964855;28;20490;-78
2022/01/30 06:15:15;;;;;;;24.13;9.33;;;6.60;99.90;;;;;;4956652;28;20454;-78
2022/01/30 06:17:45;;;;;;;176.23;46.63;;;6.60;99.90;;;;;;4956707;28;20563;-79
2022/01/30 06:20:41;;;;;;;37.23;12.50;;;6.60;99.90;;;;;;4957290;28;20455;-78
2022/01/30 06:23:29;;;;;;;58.40;10.93;;;6.60;99.90;;;;;;4953686;28;20489;-79
2022/01/30 06:26:16;;;;;;;24.90;8.60;;;6.50;99.90;;;;;;4958598;29;20449;-79
2022/01/30 06:29:03;;;;;;;56.93;8.53;;;6.60;99.90;;;;;;4957959;29;21006;-79
2022/01/30 06:31:54;;;;;;;28.87;9.47;;;6.50;99.90;;;;;;4957943;28;20819;-78
2022/01/30 06:34:41;;;;;;;25.07;8.07;;;6.50;99.90;;;;;;4969544;28;20981;-78
2022/01/30 06:37:31;;;;;;;21.97;7.23;;;6.50;99.90;;;;;;4958632;28;20529;-78
2022/01/30 06:40:18;;;;;;;25.33;8.20;;;6.50;99.90;;;;;;4975477;28;20511;-78
2022/01/30 06:43:07;;;;;;;24.97;7.83;;;6.40;99.90;;;;;;4971099;28;20516;-79
2022/01/30 06:45:55;;;;;;;18.97;7.40;;;6.40;99.90;;;;;;4957716;29;20423;-78
2022/01/30 06:48:42;;;;;;;19.67;7.63;;;6.40;99.90;;;;;;4971775;28;20477;-78
2022/01/30 06:51:29;;;;;;;22.20;7.40;;;6.40;99.90;;;;;;4976569;28;20428;-79
2022/01/30 06:54:17;;;;;;;15.07;6.40;;;6.30;99.90;;;;;;4977011;28;20430;-78
2022/01/30 06:57:23;;;;;;;22.47;6.83;;;6.30;99.90;;;;;;4973750;28;20507;-79
2022/01/30 07:00:11;;;;;;;21.63;7.87;;;6.30;99.90;;;;;;4975002;28;20487;-79
2022/01/30 07:02:58;;;;;;;29.87;9.80;;;6.30;99.90;;;;;;4962417;28;20450;-78
2022/01/30 07:05:49;;;;;;;22.67;8.07;;;6.30;99.90;;;;;;4955908;28;20915;-79
2022/01/30 07:08:29;;;;;;;19.53;7.40;;;6.30;99.90;;;;;;4975225;28;20481;-78
2022/01/30 07:10:59;;;;;;;22.53;7.30;;;6.20;99.90;;;;;;4974394;28;20481;-78
2022/01/30 07:13:27;;;;;;;20.10;7.07;;;6.30;99.90;;;;;;4974190;28;20450;-78
2022/01/30 07:15:55;;;;;;;19.80;6.73;;;6.20;99.90;;;;;;4975531;28;20477;-78
2022/01/30 07:18:23;;;;;;;27.60;6.43;;;6.30;99.90;;;;;;4975605;28;20531;-78
2022/01/30 07:20:53;;;;;;;20.47;7.60;;;6.30;99.90;;;;;;4973182;28;20450;-78
2022/01/30 07:23:21;;;;;;;26.73;8.47;;;6.30;99.90;;;;;;4956441;28;20466;-78
2022/01/30 07:25:50;;;;;;;20.20;6.60;;;6.30;99.90;;;;;;4955035;28;20546;-78
2022/01/30 07:28:19;;;;;;;22.50;8.33;;;6.30;99.90;;;;;;4955038;28;20498;-78
2022/01/30 07:30:47;;;;;;;21.00;6.80;;;6.30;99.90;;;;;;4954768;28;20483;-78
2022/01/30 07:33:15;;;;;;;18.93;6.43;;;6.30;99.90;;;;;;4955212;28;20550;-78
2022/01/30 07:35:44;;;;;;;23.90;6.70;;;6.30;99.90;;;;;;4956128;28;20447;-78
2022/01/30 07:38:13;;;;;;;15.83;6.37;;;6.30;99.90;;;;;;4954639;28;21009;-79
2022/01/30 07:40:41;;;;;;;17.40;5.70;;;6.30;99.90;;;;;;4957488;28;20435;-79
2022/01/30 07:43:10;;;;;;;17.30;6.07;;;6.40;99.90;;;;;;4955540;28;20458;-78
2022/01/30 07:45:50;;;;;;;14.37;5.40;;;6.40;99.90;;;;;;4965073;28;20513;-78
2022/01/30 07:48:19;;;;;;;16.07;6.03;;;6.40;99.90;;;;;;4975897;28;20473;-79
2022/01/30 07:50:47;;;;;;;23.83;6.73;;;6.40;99.90;;;;;;4975201;28;20955;-79
2022/01/30 07:53:15;;;;;;;14.40;5.97;;;6.40;99.90;;;;;;4969630;28;20466;-79
2022/01/30 07:55:43;;;;;;;19.97;6.67;;;6.40;99.90;;;;;;4968505;28;20500;-78
2022/01/30 07:58:12;;;;;;;17.00;6.00;;;6.40;99.90;;;;;;4992449;28;20913;-78
2022/01/30 08:00:40;;;;;;;17.97;6.50;;;6.40;99.90;;;;;;4994309;28;20492;-78
2022/01/30 08:03:11;;;;;;;22.23;6.77;;;6.40;99.90;;;;;;4992424;28;20554;-78
2022/01/30 08:05:40;;;;;;;19.50;6.53;;;6.40;99.90;;;;;;4984303;28;20485;-78
2022/01/30 08:08:09;;;;;;;17.90;7.73;;;6.40;99.90;;;;;;4953591;28;20482;-78
2022/01/30 08:10:37;;;;;;;15.73;5.93;;;6.40;99.90;;;;;;4953865;29;20462;-79
2022/01/30 08:13:06;;;;;;;21.37;7.00;;;6.40;99.90;;;;;;4961977;28;20487;-78
2022/01/30 08:15:34;;;;;;;17.97;6.57;;;6.40;99.90;;;;;;4974572;28;20963;-78
2022/01/30 08:18:02;;;;;;;20.23;6.30;;;6.50;99.90;;;;;;4973041;28;20492;-78
2022/01/30 08:20:32;;;;;;;18.13;7.00;;;6.50;99.90;;;;;;4972954;28;20533;-79
2022/01/30 08:23:07;;;;;;;20.83;8.00;;;6.50;99.90;;;;;;4973280;28;20466;-79
2022/01/30 08:25:35;;;;;;;22.20;8.37;;;6.50;99.90;;;;;;4968990;28;20560;-79
2022/01/30 08:28:04;;;;;;;22.43;8.30;;;6.50;99.90;;;;;;4962880;28;21004;-78
2022/01/30 08:30:32;;;;;;;20.40;6.87;;;6.50;99.90;;;;;;4973389;28;20967;-78
2022/01/30 08:33:02;;;;;;;41.33;8.83;;;6.50;99.90;;;;;;4972929;28;20446;-78
2022/01/30 08:35:33;;;;;;;30.93;8.20;;;6.50;99.90;;;;;;4975621;28;20488;-78
2022/01/30 08:38:01;;;;;;;22.77;7.87;;;6.50;99.90;;;;;;4974545;28;20553;-78
2022/01/30 08:40:30;;;;;;;29.90;9.03;;;6.50;99.90;;;;;;4975182;28;20493;-78
2022/01/30 08:42:58;;;;;;;23.53;8.07;;;6.60;99.90;;;;;;4965189;28;20505;-78
2022/01/30 08:45:26;;;;;;;30.30;9.83;;;6.60;99.90;;;;;;4969707;28;20532;-78
2022/01/30 08:47:55;;;;;;;56.10;12.77;;;6.60;99.90;;;;;;4968593;28;20507;-78
2022/01/30 08:50:24;;;;;;;30.27;10.40;;;6.60;99.90;;;;;;4970817;28;20448;-78
2022/01/30 08:52:54;;;;;;;26.03;9.67;;;6.60;99.90;;;;;;4953715;28;20462;-78
2022/01/30 08:55:22;;;;;;;26.77;8.90;;;6.70;99.90;;;;;;4954533;28;20825;-78
2022/01/30 08:57:51;;;;;;;28.90;9.47;;;6.70;99.90;;;;;;4959172;28;20486;-80
2022/01/30 09:00:19;;;;;;;31.97;8.87;;;6.70;99.90;;;;;;4972528;28;20513;-78
2022/01/30 09:02:48;;;;;;;24.77;9.30;;;6.70;99.90;;;;;;4972963;28;20454;-78
2022/01/30 09:05:16;;;;;;;29.83;11.27;;;6.70;99.90;;;;;;4970904;28;20545;-79
2022/01/30 09:07:44;;;;;;;24.37;9.83;;;6.70;99.90;;;;;;4955344;28;20467;-78
2022/01/30 09:10:14;;;;;;;33.43;10.93;;;6.80;99.90;;;;;;4953852;28;20461;-78
2022/01/30 09:12:43;;;;;;;28.40;9.53;;;6.70;99.90;;;;;;4953778;28;20550;-79
2022/01/30 09:15:14;;;;;;;30.20;9.50;;;6.70;99.90;;;;;;4953316;28;20451;-78
2022/01/30 09:17:43;;;;;;;32.23;10.07;;;6.80;99.90;;;;;;4952789;28;20490;-78
2022/01/30 09:20:12;;;;;;;30.00;10.00;;;6.80;99.90;;;;;;4952990;28;20475;-79
2022/01/30 09:22:41;;;;;;;31.00;10.87;;;6.80;99.90;;;;;;4966004;28;20484;-78
2022/01/30 09:25:11;;;;;;;31.03;10.17;;;6.80;99.90;;;;;;4964776;28;20455;-78
2022/01/30 09:27:41;;;;;;;31.50;10.50;;;6.80;99.90;;;;;;4957612;28;20573;-78
2022/01/30 09:30:11;;;;;;;26.60;9.77;;;6.90;99.90;;;;;;4972626;28;20455;-78
2022/01/30 09:32:39;;;;;;;29.30;10.70;;;6.90;99.90;;;;;;4972510;28;20491;-78
2022/01/30 09:35:09;;;;;;;30.10;10.10;;;6.90;99.90;;;;;;4972407;28;20454;-78
2022/01/30 09:37:37;;;;;;;29.03;9.97;;;6.90;99.90;;;;;;4972422;28;20850;-78
2022/01/30 09:40:07;;;;;;;28.63;10.03;;;6.90;99.90;;;;;;4972751;28;20475;-78
2022/01/30 09:42:36;;;;;;;31.60;10.00;;;6.90;99.90;;;;;;4972523;28;20557;-79
2022/01/30 09:45:06;;;;;;;30.63;10.70;;;6.90;99.90;;;;;;4971310;28;20493;-79
2022/01/30 09:47:34;;;;;;;28.10;8.73;;;6.90;99.90;;;;;;4976132;28;20473;-78
2022/01/30 09:50:05;;;;;;;36.60;11.77;;;6.90;99.90;;;;;;4976384;28;20553;-78
2022/01/30 09:52:33;;;;;;;29.60;9.47;;;6.90;99.90;;;;;;4964107;28;20557;-80
2022/01/30 09:55:01;;;;;;;31.43;9.30;;;7.00;99.90;;;;;;4956870;28;20477;-78
2022/01/30 09:57:29;;;;;;;32.57;12.30;;;7.00;99.90;;;;;;4958027;28;20530;-78
2022/01/30 09:59:58;;;;;;;31.60;10.33;;;7.10;99.90;;;;;;4956399;28;20573;-78
2022/01/30 10:02:28;;;;;;;30.93;10.90;;;7.10;99.90;;;;;;4958219;28;20518;-78
2022/01/30 10:04:56;;;;;;;37.80;10.97;;;7.10;99.90;;;;;;4957401;28;20463;-78
2022/01/30 10:07:39;;;;;;;31.97;10.87;;;7.10;99.90;;;;;;4956426;28;20838;-78
2022/01/30 10:10:09;;;;;;;31.13;10.37;;;7.10;99.90;;;;;;4958476;28;20430;-78
2022/01/30 10:12:57;;;;;;;34.07;11.47;;;7.20;99.90;;;;;;4974992;28;20452;-78
2022/01/30 10:15:26;;;;;;;89.77;13.93;;;7.20;99.90;;;;;;4975374;28;20456;-78
2022/01/30 10:17:57;;;;;;;77.00;13.07;;;7.20;99.90;;;;;;4975319;28;20471;-78
2022/01/30 10:20:38;;;;;;;75.83;14.90;;;7.20;99.90;;;;;;4975580;28;20473;-78
2022/01/30 10:23:09;;;;;;;28.73;9.67;;;7.20;99.90;;;;;;4975379;28;20458;-77
2022/01/30 10:25:40;;;;;;;39.83;11.17;;;7.30;99.90;;;;;;4975759;28;20818;-78
2022/01/30 10:28:11;;;;;;;26.23;9.97;;;7.30;99.90;;;;;;4969155;28;20483;-78
2022/01/30 10:30:44;;;;;;;28.80;10.57;;;7.30;99.90;;;;;;4957440;28;20527;-78
2022/01/30 10:33:15;;;;;;;27.90;9.90;;;7.30;99.90;;;;;;4955038;28;20463;-77
2022/01/30 10:35:50;;;;;;;35.63;10.67;;;7.30;99.90;;;;;;4969130;28;20797;-78
2022/01/30 10:38:23;;;;;;;24.67;10.10;;;7.30;99.90;;;;;;4975510;28;20488;-78
2022/01/30 10:40:57;;;;;;;29.40;10.27;;;7.30;99.90;;;;;;4969597;28;20510;-78
2022/01/30 10:43:49;;;;;;;28.33;9.50;;;7.30;99.90;;;;;;4956718;28;20449;-78
2022/01/30 10:46:19;;;;;;;27.70;10.00;;;7.30;99.90;;;;;;4956024;28;20549;-78
2022/01/30 10:48:54;;;;;;;28.30;9.90;;;7.30;99.90;;;;;;4958288;28;20475;-78
2022/01/30 10:51:22;;;;;;;30.70;9.70;;;7.30;99.90;;;;;;4957663;28;20548;-79
2022/01/30 10:53:51;;;;;;;25.17;9.27;;;7.30;99.90;;;;;;4955801;28;20798;-78
2022/01/30 10:56:20;;;;;;;32.80;10.30;;;7.30;99.90;;;;;;4957094;28;20496;-78
2022/01/30 10:59:06;;;;;;;31.27;10.17;;;7.30;99.90;;;;;;4975611;28;20897;-78
2022/01/30 11:01:35;;;;;;;24.13;8.57;;;7.30;99.90;;;;;;4975304;28;20632;-78
2022/01/30 11:04:04;;;;;;;22.50;8.80;;;7.30;99.90;;;;;;4977169;28;20449;-78
2022/01/30 11:06:39;;;;;;;30.37;8.97;;;7.30;99.90;;;;;;4975511;28;20956;-78
2022/01/30 11:09:08;;;;;;;27.83;9.43;;;7.40;99.90;;;;;;4975393;28;20560;-78
2022/01/30 11:11:41;;;;;;;28.30;10.17;;;7.40;99.90;;;;;;4964519;28;20483;-78
2022/01/30 11:14:20;;;;;;;31.60;9.43;;;7.40;99.90;;;;;;4955669;28;20477;-78
2022/01/30 11:16:59;;;;;;;25.00;9.77;;;7.40;99.90;;;;;;4955749;28;20551;-78
2022/01/30 11:19:29;;;;;;;26.10;9.23;;;7.50;99.90;;;;;;4955820;29;20487;-77
2022/01/30 11:22:00;;;;;;;23.50;8.33;;;7.60;99.90;;;;;;4971677;28;20473;-78
2022/01/30 11:24:29;;;;;;;28.07;9.47;;;7.60;99.90;;;;;;4964861;28;21011;-77
2022/01/30 11:26:58;;;;;;;36.43;11.10;;;7.60;99.90;;;;;;4955650;28;20491;-79
2022/01/30 11:29:30;;;;;;;28.73;9.67;;;7.60;99.90;;;;;;4955757;28;20460;-78
2022/01/30 11:31:59;;;;;;;27.67;8.47;;;7.60;99.90;;;;;;4956660;28;20451;-78
2022/01/30 11:34:29;;;;;;;27.73;8.83;;;7.60;99.90;;;;;;4971273;28;20517;-78
2022/01/30 11:36:58;;;;;;;30.73;9.67;;;7.50;99.90;;;;;;4957199;28;20511;-78
2022/01/30 11:39:30;;;;;;;33.53;10.03;;;7.50;99.90;;;;;;4973779;28;20462;-78
2022/01/30 11:42:15;;;;;;;29.53;10.07;;;7.50;99.90;;;;;;4964344;28;20473;-78
2022/01/30 11:44:44;;;;;;;26.40;10.20;;;7.50;99.90;;;;;;4956106;28;20447;-78
2022/01/30 11:47:24;;;;;;;31.80;10.30;;;7.50;99.90;;;;;;4957226;28;20447;-78
2022/01/30 11:50:12;;;;;;;26.73;9.77;;;7.50;99.90;;;;;;4955107;28;20458;-78
2022/01/30 11:53:01;;;;;;;21.23;9.80;;;7.50;99.90;;;;;;4957526;28;20436;-78
2022/01/30 11:55:56;;;;;;;31.70;9.77;;;7.50;99.90;;;;;;4955202;29;20444;-78
2022/01/30 11:58:46;;;;;;;29.40;9.93;;;7.60;99.90;;;;;;4954969;28;20514;-77
2022/01/30 12:01:36;;;;;;;24.70;7.57;;;7.60;99.90;;;;;;4954651;28;20503;-79
2022/01/30 12:04:12;;;;;;;21.80;8.70;;;7.60;99.90;;;;;;5055893;28;21006;-78
2022/01/30 12:06:47;;;;;;;26.03;8.70;;;7.60;99.90;;;;;;4996344;28;20514;-78
2022/01/30 12:09:27;;;;;;;25.30;9.33;;;7.70;99.90;;;;;;4955408;28;20472;-78
2022/01/30 12:12:08;;;;;;;26.40;9.70;;;7.70;99.90;;;;;;4959652;28;20434;-78
2022/01/30 12:14:58;;;;;;;18.40;7.27;;;7.70;99.90;;;;;;4955507;28;20443;-78
2022/01/30 12:17:50;;;;;;;32.37;9.13;;;7.80;99.90;;;;;;4956926;28;20500;-78
2022/01/30 12:20:19;;;;;;;29.97;8.60;;;7.80;99.90;;;;;;4955304;28;20453;-78
2022/01/30 12:22:50;;;;;;;19.20;7.97;;;7.80;99.90;;;;;;4956898;28;20462;-78
2022/01/30 12:25:44;;;;;;;21.07;8.13;;;7.80;99.90;;;;;;4955472;28;20524;-78
2022/01/30 12:28:14;;;;;;;23.43;8.83;;;7.80;99.90;;;;;;4956829;28;20863;-78
2022/01/30 12:30:49;;;;;;;29.10;8.83;;;7.80;99.90;;;;;;4956537;28;20443;-78
2022/01/30 12:33:58;;;;;;;26.77;9.20;;;7.80;99.90;;;;;;4979201;28;20456;-79
2022/01/30 12:36:26;;;;;;;23.57;8.77;;;7.80;99.90;;;;;;4994882;28;20846;-78
2022/01/30 12:39:08;;;;;;;21.73;9.20;;;7.80;99.90;;;;;;4982688;28;21009;-78
2022/01/30 12:41:38;;;;;;;26.50;9.13;;;7.70;99.90;;;;;;4953250;28;20581;-79
2022/01/30 12:44:08;;;;;;;26.47;9.83;;;7.70;99.90;;;;;;4952675;28;20527;-78
2022/01/30 12:46:46;;;;;;;24.57;7.97;;;7.70;99.90;;;;;;4953516;28;20443;-79
2022/01/30 12:49:18;;;;;;;26.40;8.77;;;7.70;99.90;;;;;;4954364;28;20513;-78
2022/01/30 12:51:52;;;;;;;35.23;9.50;;;7.70;99.90;;;;;;4969047;28;20484;-78
2022/01/30 12:54:23;;;;;;;23.60;7.57;;;7.70;99.90;;;;;;4973816;28;20454;-78
2022/01/30 12:56:53;;;;;;;18.30;7.20;;;7.70;99.90;;;;;;4975382;28;20471;-78
2022/01/30 12:59:23;;;;;;;20.87;7.73;;;7.70;99.90;;;;;;4975271;28;20510;-78
2022/01/30 13:01:52;;;;;;;21.30;7.40;;;7.70;99.90;;;;;;4976242;28;20524;-78
2022/01/30 13:04:22;;;;;;;22.93;7.67;;;7.80;99.90;;;;;;4974041;28;20447;-78
2022/01/30 13:06:51;;;;;;;20.80;8.00;;;7.80;99.90;;;;;;4972986;28;20462;-78
2022/01/30 13:09:23;;;;;;;22.37;7.40;;;7.80;99.90;;;;;;4974443;28;20958;-78
2022/01/30 13:11:51;;;;;;;20.97;7.07;;;7.90;99.90;;;;;;4974245;28;20453;-78
2022/01/30 13:14:20;;;;;;;18.20;6.90;;;7.80;99.90;;;;;;4973974;28;20567;-78
2022/01/30 13:16:50;;;;;;;20.53;6.90;;;7.80;99.90;;;;;;4973879;28;20460;-78
2022/01/30 13:19:30;;;;;;;20.57;7.40;;;7.80;99.90;;;;;;4976459;28;20465;-78
2022/01/30 13:21:58;;;;;;;19.63;7.33;;;7.80;99.90;;;;;;4972670;28;20475;-78
2022/01/30 13:24:28;;;;;;;21.63;8.37;;;7.80;99.90;;;;;;4958276;28;20542;-78
2022/01/30 13:26:58;;;;;;;18.97;6.53;;;7.70;99.90;;;;;;4959146;28;20435;-79
2022/01/30 13:29:27;;;;;;;21.00;8.20;;;7.70;99.90;;;;;;4976513;28;21009;-78
2022/01/30 13:31:59;;;;;;;23.97;7.10;;;7.70;99.90;;;;;;4977204;28;20511;-78
2022/01/30 13:34:30;;;;;;;48.63;8.67;;;7.70;99.90;;;;;;4976894;28;20445;-80
2022/01/30 13:37:05;;;;;;;25.60;8.17;;;7.60;99.90;;;;;;4963216;28;20509;-78
2022/01/30 13:39:40;;;;;;;25.80;8.50;;;7.60;99.90;;;;;;4963172;28;20502;-78
2022/01/30 13:42:42;;;;;;;24.17;8.97;;;7.60;99.90;;;;;;4978296;28;20464;-78
2022/01/30 13:48:20;;;;;;;27.13;9.20;;;7.60;99.90;;;;;;4963328;28;21002;-78
2022/01/30 13:50:52;;;;;;;25.20;8.93;;;7.60;99.90;;;;;;4957673;28;20566;-78
2022/01/30 13:53:28;;;;;;;24.50;7.80;;;7.50;99.90;;;;;;4957846;28;20954;-78